Terminal Aerodrome Forecast
Issued by NWS Oklahoma City, OK

Home | Current Version | Previous Version | Text Only | Print | Product List | Glossary On
Versions: 1 2 3 4 5 6 7 8 9 10 11 12 13 14 15 16 17 18 19 20 21 22 23 24 25 26 27 28 29 30 31 32 33 34
000
FTUS44 KOUN 291124
TAFOUN
TAF
KOUN 291124Z 2912/3012 17009KT P6SM SCT080 BKN120
      TEMPO 2912/2915 5SM -RA BR SCT030 BKN080
     FM291800 17012KT P6SM BKN035 BKN120
     FM300700 33008KT 5SM -TSRA SCT025 OVC040CB
      TEMPO 3007/3010 2SM TSRA BR SCT012 OVC025CB
     FM301000 36014KT P6SM BKN025=

USA.gov is the U.S. government's official web portal to all federal, state and local government web resources and services.